Time;durP1;ratioP1;P1;durP2;ratioP2;P2;SDS_P1;SDS_P2;PMS_P1;PMS_P2;Temp;Humidity;BMP_temperature;BMP_pressure;BME280_temperature;BME280_humidity;BME280_pressure;Samples;Min_cycle;Max_cycle;Signal;HPM_P1;HPM_P2
2022/01/08 00:02:41;;;;;;;;;50.25;38.00;;;;;;;;4960320;28;51236;-51
2022/01/08 00:05:34;;;;;;;;;49.75;36.50;;;;;;;;4960190;28;51464;-47
2022/01/08 00:08:19;;;;;;;;;49.75;38.25;;;;;;;;4960464;28;51100;-51
2022/01/08 00:11:07;;;;;;;;;49.75;36.25;;;;;;;;4960843;28;52048;-46
2022/01/08 00:13:52;;;;;;;;;48.00;37.50;;;;;;;;4960356;28;51419;-49
2022/01/08 00:17:01;;;;;;;;;51.50;39.00;;;;;;;;4960570;28;51166;-50
2022/01/08 00:19:47;;;;;;;;;44.00;36.25;;;;;;;;4960066;28;51092;-48
2022/01/08 00:22:31;;;;;;;;;44.25;35.75;;;;;;;;4960133;28;51053;-50
2022/01/08 00:25:21;;;;;;;;;45.75;37.25;;;;;;;;4960190;28;51055;-53
2022/01/08 00:28:08;;;;;;;;;49.25;38.00;;;;;;;;4960574;28;51174;-51
2022/01/08 00:30:52;;;;;;;;;42.25;34.50;;;;;;;;4960152;28;51549;-52
2022/01/08 00:33:41;;;;;;;;;54.00;39.00;;;;;;;;4959968;28;51115;-52
2022/01/08 00:36:37;;;;;;;;;50.75;36.75;;;;;;;;4986658;28;51671;-49
2022/01/08 00:39:22;;;;;;;;;49.75;37.00;;;;;;;;4960014;28;50984;-50
2022/01/08 00:42:10;;;;;;;;;53.25;36.75;;;;;;;;4960429;28;51166;-47
2022/01/08 00:44:56;;;;;;;;;44.50;35.00;;;;;;;;4959886;28;51470;-49
2022/01/08 00:47:40;;;;;;;;;50.00;36.00;;;;;;;;4959881;28;51072;-52
2022/01/08 00:50:29;;;;;;;;;50.50;37.00;;;;;;;;4959905;28;51184;-46
2022/01/08 00:53:16;;;;;;;;;45.75;34.25;;;;;;;;4960308;28;51143;-49
2022/01/08 00:56:01;;;;;;;;;48.00;39.50;;;;;;;;4959758;28;51494;-47
2022/01/08 00:58:45;;;;;;;;;49.75;38.00;;;;;;;;4959930;28;51095;-52
2022/01/08 01:01:31;;;;;;;;;50.50;37.00;;;;;;;;4960125;28;51027;-52
2022/01/08 01:04:26;;;;;;;;;48.00;38.25;;;;;;;;4959808;28;51044;-49
2022/01/08 01:07:13;;;;;;;;;48.75;39.75;;;;;;;;4960036;28;51160;-49
2022/01/08 01:10:13;;;;;;;;;47.50;37.00;;;;;;;;4963010;28;51052;-50
2022/01/08 01:13:03;;;;;;;;;50.25;38.75;;;;;;;;4986597;28;51680;-47
2022/01/08 01:15:48;;;;;;;;;57.00;40.00;;;;;;;;4963484;28;51241;-48
2022/01/08 01:18:36;;;;;;;;;41.75;32.25;;;;;;;;4963428;28;50976;-49
2022/01/08 01:21:53;;;;;;;;;50.00;37.50;;;;;;;;4963278;28;51581;-51
2022/01/08 01:24:40;;;;;;;;;51.25;37.25;;;;;;;;4949667;28;51370;-52
2022/01/08 01:47:00;;;;;;;;;47.50;36.25;;;;;;;;4962773;28;51569;-52
2022/01/08 01:49:38;;;;;;;;;53.25;38.75;;;;;;;;4962753;28;51423;-51
2022/01/08 01:52:33;;;;;;;;;49.75;37.00;;;;;;;;4962670;28;51080;-52
2022/01/08 01:55:19;;;;;;;;;48.75;38.25;;;;;;;;4962848;28;51130;-55
2022/01/08 01:58:06;;;;;;;;;45.25;36.25;;;;;;;;4962795;28;51082;-50
2022/01/08 02:00:50;;;;;;;;;48.00;35.50;;;;;;;;4962890;28;51127;-49
2022/01/08 02:03:42;;;;;;;;;52.00;37.50;;;;;;;;4962232;28;51366;-49
2022/01/08 02:06:27;;;;;;;;;48.00;38.50;;;;;;;;4962896;28;51651;-52
2022/01/08 02:09:12;;;;;;;;;49.00;39.00;;;;;;;;4989166;28;51184;-49
2022/01/08 02:12:02;;;;;;;;;48.75;38.50;;;;;;;;4963001;28;51198;-51
2022/01/08 02:14:50;;;;;;;;;49.75;38.75;;;;;;;;4987884;28;51478;-49
2022/01/08 02:17:39;;;;;;;;;48.75;38.25;;;;;;;;4962206;28;51144;-49
2022/01/08 02:20:27;;;;;;;;;46.00;37.25;;;;;;;;4961929;28;51502;-50
2022/01/08 02:23:13;;;;;;;;;47.50;37.00;;;;;;;;4961944;28;51071;-48
2022/01/08 02:26:04;;;;;;;;;52.00;38.75;;;;;;;;4962623;28;51159;-52
2022/01/08 02:28:54;;;;;;;;;50.25;38.25;;;;;;;;4961303;28;51315;-50
2022/01/08 02:31:45;;;;;;;;;47.25;36.00;;;;;;;;4961734;28;51266;-51
2022/01/08 02:34:32;;;;;;;;;48.75;36.75;;;;;;;;4961886;28;52270;-49
2022/01/08 02:37:19;;;;;;;;;46.25;34.25;;;;;;;;4962228;28;51157;-52
2022/01/08 02:40:11;;;;;;;;;47.75;36.50;;;;;;;;4961951;28;51036;-51
2022/01/08 02:45:51;;;;;;;;;53.25;41.00;;;;;;;;4959416;28;51738;-52
2022/01/08 02:48:46;;;;;;;;;47.50;38.50;;;;;;;;4959107;28;51209;-51
2022/01/08 02:51:33;;;;;;;;;55.25;43.50;;;;;;;;4960019;28;50992;-52
2022/01/08 02:54:19;;;;;;;;;60.50;44.25;;;;;;;;4959421;28;51719;-52
2022/01/08 02:57:06;;;;;;;;;60.50;45.25;;;;;;;;4959056;28;51131;-48
2022/01/08 03:00:11;;;;;;;;;60.00;45.25;;;;;;;;4958922;28;51249;-53
2022/01/08 03:03:03;;;;;;;;;60.25;46.00;;;;;;;;4959214;28;51068;-52
2022/01/08 03:05:48;;;;;;;;;61.00;46.75;;;;;;;;4958216;28;51449;-49
2022/01/08 03:08:39;;;;;;;;;56.50;44.00;;;;;;;;4939155;28;51168;-48
2022/01/08 03:11:26;;;;;;;;;52.50;42.50;;;;;;;;4937904;28;51199;-51
2022/01/08 03:14:11;;;;;;;;;59.00;41.50;;;;;;;;4939261;28;52000;-48
2022/01/08 03:16:59;;;;;;;;;54.75;40.50;;;;;;;;4939683;28;51112;-49
2022/01/08 03:19:52;;;;;;;;;57.00;42.50;;;;;;;;4953294;28;51188;-50
2022/01/08 03:23:04;;;;;;;;;55.00;40.50;;;;;;;;4946538;28;51529;-46
2022/01/08 03:25:51;;;;;;;;;54.75;40.75;;;;;;;;4964925;28;51590;-49
2022/01/08 03:28:56;;;;;;;;;58.75;43.00;;;;;;;;4981030;28;51147;-48
2022/01/08 03:31:46;;;;;;;;;60.25;45.00;;;;;;;;4979503;28;51416;-52
2022/01/08 03:34:36;;;;;;;;;58.00;43.25;;;;;;;;4980803;28;51355;-53
2022/01/08 03:37:24;;;;;;;;;53.25;44.00;;;;;;;;4980118;28;51685;-49
2022/01/08 03:40:08;;;;;;;;;61.50;46.00;;;;;;;;4980245;28;51188;-52
2022/01/08 03:42:54;;;;;;;;;62.00;45.00;;;;;;;;4980669;28;51158;-51
2022/01/08 03:45:39;;;;;;;;;57.75;44.75;;;;;;;;4980274;28;51543;-49
2022/01/08 03:48:58;;;;;;;;;61.00;45.00;;;;;;;;4980212;28;51460;-52
2022/01/08 03:51:45;;;;;;;;;59.00;44.00;;;;;;;;4979900;28;51081;-49
2022/01/08 03:54:49;;;;;;;;;58.00;44.50;;;;;;;;4980425;28;51186;-48
2022/01/08 03:57:36;;;;;;;;;58.75;45.25;;;;;;;;4979971;28;51107;-49
2022/01/08 04:00:30;;;;;;;;;64.25;47.50;;;;;;;;4980015;28;51144;-52
2022/01/08 04:03:18;;;;;;;;;57.25;45.00;;;;;;;;4980311;28;51531;-50
2022/01/08 04:06:06;;;;;;;;;62.00;46.75;;;;;;;;4979855;28;51116;-49
2022/01/08 04:08:56;;;;;;;;;60.25;47.00;;;;;;;;4980257;28;50965;-52
2022/01/08 04:11:46;;;;;;;;;64.50;46.25;;;;;;;;4979663;28;51551;-50
2022/01/08 04:14:53;;;;;;;;;65.00;47.25;;;;;;;;4979774;28;51598;-50
2022/01/08 04:17:42;;;;;;;;;60.75;46.00;;;;;;;;4979747;28;51131;-49
2022/01/08 04:20:26;;;;;;;;;61.50;46.25;;;;;;;;4980083;28;51118;-53
2022/01/08 04:23:13;;;;;;;;;64.25;46.50;;;;;;;;4973332;28;51090;-48
2022/01/08 04:26:01;;;;;;;;;60.25;45.25;;;;;;;;4979102;28;51013;-52
2022/01/08 04:28:47;;;;;;;;;57.50;44.25;;;;;;;;4979502;28;51065;-48
2022/01/08 04:31:32;;;;;;;;;56.25;44.25;;;;;;;;4979621;28;51067;-47
2022/01/08 04:34:37;;;;;;;;;53.50;42.00;;;;;;;;4980219;28;51045;-52
2022/01/08 04:37:21;;;;;;;;;58.25;43.50;;;;;;;;4979532;28;51103;-49
2022/01/08 04:40:12;;;;;;;;;55.75;42.50;;;;;;;;4979967;28;51543;-48
2022/01/08 04:43:01;;;;;;;;;55.25;43.00;;;;;;;;4980254;28;51164;-50
2022/01/08 04:45:56;;;;;;;;;57.25;42.75;;;;;;;;4983559;28;51089;-54
2022/01/08 04:48:41;;;;;;;;;53.25;42.75;;;;;;;;4983650;28;51395;-47
2022/01/08 04:51:30;;;;;;;;;56.50;42.00;;;;;;;;4983707;28;51193;-52
2022/01/08 04:54:14;;;;;;;;;58.00;43.75;;;;;;;;4995828;28;51504;-50
2022/01/08 04:56:58;;;;;;;;;60.00;45.50;;;;;;;;4982986;28;51257;-51
2022/01/08 04:59:46;;;;;;;;;59.50;45.50;;;;;;;;4983991;28;51165;-51
2022/01/08 05:02:34;;;;;;;;;58.00;45.25;;;;;;;;4979915;28;51735;-48
2022/01/08 05:05:20;;;;;;;;;62.00;47.00;;;;;;;;4983296;28;51376;-51
2022/01/08 05:08:04;;;;;;;;;62.75;47.50;;;;;;;;5003723;28;51157;-51
2022/01/08 05:10:56;;;;;;;;;58.50;43.75;;;;;;;;4983575;28;51124;-52
2022/01/08 05:14:03;;;;;;;;;65.75;48.75;;;;;;;;4982710;28;51582;-51
2022/01/08 05:16:56;;;;;;;;;63.50;46.75;;;;;;;;4982666;28;51143;-51
2022/01/08 05:19:56;;;;;;;;;66.75;47.75;;;;;;;;4983386;28;51629;-52
2022/01/08 05:25:31;;;;;;;;;63.75;48.25;;;;;;;;4982983;28;51148;-48
2022/01/08 05:28:17;;;;;;;;;62.50;49.00;;;;;;;;4982614;28;51220;-50
2022/01/08 05:31:06;;;;;;;;;64.75;48.75;;;;;;;;4982599;28;51090;-50
2022/01/08 05:33:51;;;;;;;;;68.00;50.75;;;;;;;;4982581;28;51094;-50
2022/01/08 05:36:39;;;;;;;;;67.75;53.75;;;;;;;;4982967;28;51111;-50
2022/01/08 05:39:25;;;;;;;;;72.00;56.75;;;;;;;;4982498;28;51339;-49
2022/01/08 05:42:11;;;;;;;;;71.25;54.75;;;;;;;;4982230;28;51151;-52
2022/01/08 05:45:02;;;;;;;;;60.00;46.50;;;;;;;;4982549;28;51635;-49
2022/01/08 05:47:52;;;;;;;;;58.75;46.00;;;;;;;;4982382;28;51110;-52
2022/01/08 05:50:37;;;;;;;;;51.75;39.75;;;;;;;;4982567;28;51047;-50
2022/01/08 05:53:24;;;;;;;;;56.00;42.00;;;;;;;;4982449;28;51133;-49
2022/01/08 05:56:12;;;;;;;;;57.50;42.00;;;;;;;;4980757;28;51720;-53
2022/01/08 05:58:56;;;;;;;;;54.50;39.25;;;;;;;;4981985;28;51421;-53
2022/01/08 06:01:45;;;;;;;;;53.25;40.50;;;;;;;;4982641;28;51118;-51
2022/01/08 06:04:41;;;;;;;;;55.75;40.50;;;;;;;;4981842;28;51634;-52
2022/01/08 06:07:27;;;;;;;;;50.25;38.25;;;;;;;;4981890;28;51084;-52
2022/01/08 06:10:14;;;;;;;;;55.50;41.50;;;;;;;;4982131;28;51137;-50
2022/01/08 06:13:03;;;;;;;;;55.00;39.00;;;;;;;;4980260;28;51377;-50
2022/01/08 06:15:49;;;;;;;;;56.25;42.25;;;;;;;;4980635;28;51561;-51
2022/01/08 06:18:50;;;;;;;;;53.50;40.00;;;;;;;;4927450;28;51217;-53
2022/01/08 06:21:34;;;;;;;;;59.50;46.50;;;;;;;;4938239;28;51520;-49
2022/01/08 06:24:19;;;;;;;;;62.50;48.00;;;;;;;;4921996;28;51514;-49
2022/01/08 06:27:05;;;;;;;;;70.25;51.50;;;;;;;;4938844;28;51118;-51
2022/01/08 06:29:51;;;;;;;;;66.75;53.75;;;;;;;;4875749;28;51458;-51
2022/01/08 06:32:58;;;;;;;;;71.50;55.50;;;;;;;;4925615;28;51277;-48
2022/01/08 06:35:51;;;;;;;;;74.50;59.75;;;;;;;;4940662;28;50990;-49
2022/01/08 06:38:37;;;;;;;;;78.00;61.00;;;;;;;;4922478;28;51105;-50
2022/01/08 06:41:21;;;;;;;;;74.50;60.25;;;;;;;;4940525;28;51186;-52
2022/01/08 06:44:06;;;;;;;;;81.00;65.50;;;;;;;;4931143;28;51174;-49
2022/01/08 06:46:50;;;;;;;;;78.50;69.25;;;;;;;;4921088;28;51688;-52
2022/01/08 06:49:34;;;;;;;;;80.50;70.50;;;;;;;;4921004;28;51203;-52
2022/01/08 06:52:18;;;;;;;;;94.75;82.75;;;;;;;;4937657;28;51139;-51
2022/01/08 06:55:03;;;;;;;;;112.75;99.25;;;;;;;;4944623;28;51451;-52
2022/01/08 06:57:47;;;;;;;;;139.25;124.25;;;;;;;;4981266;28;51019;-51
2022/01/08 07:00:31;;;;;;;;;116.25;103.75;;;;;;;;4981285;28;51400;-53
2022/01/08 07:03:16;;;;;;;;;95.50;77.00;;;;;;;;4977864;28;51194;-51
2022/01/08 07:06:00;;;;;;;;;79.25;69.00;;;;;;;;4980704;28;51574;-50
2022/01/08 07:08:44;;;;;;;;;101.75;85.25;;;;;;;;4967667;28;51088;-50
2022/01/08 07:11:29;;;;;;;;;102.25;93.00;;;;;;;;4977397;28;51059;-50
2022/01/08 07:14:13;;;;;;;;;105.25;93.75;;;;;;;;4980028;28;51150;-51
2022/01/08 07:16:58;;;;;;;;;95.00;84.25;;;;;;;;4980216;28;51065;-53
2022/01/08 07:19:42;;;;;;;;;84.75;76.75;;;;;;;;4980286;28;51530;-50
2022/01/08 07:22:28;;;;;;;;;87.00;77.50;;;;;;;;4980099;28;51362;-52
2022/01/08 07:25:12;;;;;;;;;93.25;83.25;;;;;;;;4980128;28;51476;-52
2022/01/08 07:27:57;;;;;;;;;102.00;87.75;;;;;;;;4978385;28;51424;-50
2022/01/08 07:36:14;;;;;;;;;94.50;84.00;;;;;;;;4929778;28;51442;-46
2022/01/08 07:38:59;;;;;;;;;93.00;80.00;;;;;;;;4941199;28;51087;-43
2022/01/08 07:41:43;;;;;;;;;84.50;72.50;;;;;;;;4941079;28;51180;-48
2022/01/08 07:44:27;;;;;;;;;99.50;86.25;;;;;;;;4940858;28;51361;-44
2022/01/08 07:47:12;;;;;;;;;97.50;88.25;;;;;;;;4941136;28;51163;-46
2022/01/08 07:49:56;;;;;;;;;97.75;89.75;;;;;;;;4933450;28;51816;-45
2022/01/08 07:52:40;;;;;;;;;105.50;89.75;;;;;;;;4940894;28;51137;-45
2022/01/08 07:55:25;;;;;;;;;95.25;86.25;;;;;;;;4938406;28;51648;-50
2022/01/08 07:58:09;;;;;;;;;101.25;92.25;;;;;;;;4940470;28;51153;-48
2022/01/08 08:00:54;;;;;;;;;85.50;70.00;;;;;;;;4940652;28;51550;-44
2022/01/08 08:03:38;;;;;;;;;84.75;78.00;;;;;;;;4940351;28;51095;-48
2022/01/08 08:06:22;;;;;;;;;84.75;72.50;;;;;;;;4940524;28;51114;-45
2022/01/08 08:09:07;;;;;;;;;80.00;69.00;;;;;;;;4940051;28;51377;-46
2022/01/08 08:11:51;;;;;;;;;71.50;64.50;;;;;;;;4940494;28;51196;-50
2022/01/08 08:14:36;;;;;;;;;80.00;70.00;;;;;;;;4940585;28;51366;-46
2022/01/08 08:17:20;;;;;;;;;84.25;72.75;;;;;;;;4939837;28;51133;-45
2022/01/08 08:20:05;;;;;;;;;83.50;72.50;;;;;;;;4939877;28;51428;-43
2022/01/08 08:22:49;;;;;;;;;78.50;68.00;;;;;;;;4934376;28;51315;-47
2022/01/08 08:25:34;;;;;;;;;79.25;72.50;;;;;;;;4938408;28;51546;-48
2022/01/08 08:28:18;;;;;;;;;85.50;77.00;;;;;;;;4936192;28;51351;-47
2022/01/08 08:31:02;;;;;;;;;78.00;68.00;;;;;;;;4932942;28;52071;-46
2022/01/08 08:33:47;;;;;;;;;77.50;67.75;;;;;;;;4922116;28;51490;-49
2022/01/08 08:36:31;;;;;;;;;78.00;71.50;;;;;;;;4939489;28;51118;-47
2022/01/08 08:39:15;;;;;;;;;76.75;66.75;;;;;;;;4940478;28;51510;-48
2022/01/08 08:42:00;;;;;;;;;79.75;71.25;;;;;;;;4940392;28;51095;-50
2022/01/08 08:44:44;;;;;;;;;79.25;67.50;;;;;;;;4940524;28;51022;-49
2022/01/08 08:47:28;;;;;;;;;76.50;67.00;;;;;;;;4940077;28;51538;-46
2022/01/08 08:50:14;;;;;;;;;78.50;68.75;;;;;;;;4940500;28;51110;-45
2022/01/08 08:52:58;;;;;;;;;75.50;67.00;;;;;;;;4940342;28;51127;-50
2022/01/08 08:55:43;;;;;;;;;80.00;63.00;;;;;;;;4933710;28;51432;-46
2022/01/08 08:58:27;;;;;;;;;77.00;67.00;;;;;;;;4938339;28;51433;-47
2022/01/08 09:01:12;;;;;;;;;74.75;63.75;;;;;;;;4938633;28;51095;-50
2022/01/08 09:03:56;;;;;;;;;78.00;62.25;;;;;;;;4934814;28;51215;-48
2022/01/08 09:06:40;;;;;;;;;75.50;63.25;;;;;;;;4938298;28;51593;-49
2022/01/08 09:09:27;;;;;;;;;72.75;62.75;;;;;;;;4934775;28;51148;-49
2022/01/08 09:12:15;;;;;;;;;82.00;70.50;;;;;;;;4939105;28;51253;-50
2022/01/08 09:14:59;;;;;;;;;82.75;72.25;;;;;;;;4939120;28;51147;-47
2022/01/08 09:17:44;;;;;;;;;75.25;65.50;;;;;;;;4935453;28;51245;-47
2022/01/08 09:20:28;;;;;;;;;78.75;70.50;;;;;;;;4930748;28;51133;-47
2022/01/08 09:23:13;;;;;;;;;74.50;62.00;;;;;;;;4923091;28;51464;-51
2022/01/08 09:25:57;;;;;;;;;74.25;59.25;;;;;;;;4924548;28;51237;-44
2022/01/08 09:28:41;;;;;;;;;71.00;58.75;;;;;;;;4935804;28;51174;-48
2022/01/08 09:31:26;;;;;;;;;62.75;48.50;;;;;;;;4940602;28;51207;-49
2022/01/08 09:34:11;;;;;;;;;62.75;48.25;;;;;;;;4935037;28;51510;-49
2022/01/08 09:36:55;;;;;;;;;54.75;42.00;;;;;;;;4941547;28;51068;-48
2022/01/08 09:39:40;;;;;;;;;46.00;34.50;;;;;;;;4941855;28;51587;-49
2022/01/08 09:42:24;;;;;;;;;49.75;38.00;;;;;;;;4941283;28;51907;-49
2022/01/08 09:45:09;;;;;;;;;50.75;39.50;;;;;;;;4941806;28;51081;-49
2022/01/08 09:47:54;;;;;;;;;52.50;40.75;;;;;;;;4939838;28;51539;-48
2022/01/08 09:50:39;;;;;;;;;50.00;40.25;;;;;;;;4938667;28;51677;-48
2022/01/08 09:53:23;;;;;;;;;52.50;42.25;;;;;;;;4939462;28;51648;-46
2022/01/08 09:56:08;;;;;;;;;58.25;44.50;;;;;;;;4939695;28;51287;-45
2022/01/08 09:58:53;;;;;;;;;57.50;45.00;;;;;;;;4939021;28;51451;-51
2022/01/08 10:01:37;;;;;;;;;58.00;46.00;;;;;;;;4939491;28;51225;-50
2022/01/08 10:04:48;;;;;;;;;65.75;50.50;;;;;;;;4939631;28;51704;-46
2022/01/08 10:07:32;;;;;;;;;55.75;42.75;;;;;;;;4937063;28;51416;-47
2022/01/08 10:10:19;;;;;;;;;58.50;43.25;;;;;;;;4939561;28;51157;-49
2022/01/08 10:13:04;;;;;;;;;54.25;40.00;;;;;;;;4941710;28;51141;-46
2022/01/08 10:18:51;;;;;;;;;55.00;44.25;;;;;;;;4938795;28;51184;-47
2022/01/08 10:21:37;;;;;;;;;66.75;51.50;;;;;;;;4941707;28;51132;-51
2022/01/08 10:24:28;;;;;;;;;53.50;42.25;;;;;;;;4941579;28;51412;-46
2022/01/08 10:27:12;;;;;;;;;54.00;39.25;;;;;;;;4939281;28;51608;-48
2022/01/08 10:29:57;;;;;;;;;55.25;41.75;;;;;;;;4940903;28;51220;-53
2022/01/08 10:32:54;;;;;;;;;51.75;40.50;;;;;;;;4940435;28;51495;-52
2022/01/08 10:35:49;;;;;;;;;52.25;39.75;;;;;;;;4941629;28;51089;-49
2022/01/08 10:38:33;;;;;;;;;54.25;39.50;;;;;;;;4942225;28;51334;-48
2022/01/08 10:41:17;;;;;;;;;54.75;41.25;;;;;;;;4933368;28;51170;-49
2022/01/08 10:44:06;;;;;;;;;47.75;38.75;;;;;;;;4925468;28;51244;-46
2022/01/08 10:47:02;;;;;;;;;52.75;40.50;;;;;;;;4936927;28;51397;-46
2022/01/08 10:49:48;;;;;;;;;50.50;41.00;;;;;;;;4942137;28;51562;-44
2022/01/08 10:52:43;;;;;;;;;53.25;40.50;;;;;;;;4941825;28;51098;-47
2022/01/08 10:55:31;;;;;;;;;52.25;42.00;;;;;;;;4941829;28;51357;-48
2022/01/08 10:58:17;;;;;;;;;50.75;39.50;;;;;;;;4941952;28;51180;-46
2022/01/08 11:01:02;;;;;;;;;45.75;36.75;;;;;;;;4927216;28;51049;-49
2022/01/08 11:03:47;;;;;;;;;41.50;35.50;;;;;;;;4941027;28;51105;-54
2022/01/08 11:06:31;;;;;;;;;43.50;34.00;;;;;;;;4939012;28;51166;-49
2022/01/08 11:09:16;;;;;;;;;47.75;38.75;;;;;;;;4941478;28;51194;-49
2022/01/08 11:12:01;;;;;;;;;41.75;33.00;;;;;;;;4941707;28;51005;-44
2022/01/08 11:17:44;;;;;;;;;41.50;32.00;;;;;;;;4915348;28;51121;-52
2022/01/08 11:20:29;;;;;;;;;43.00;35.75;;;;;;;;4934174;28;51709;-51
2022/01/08 11:23:15;;;;;;;;;40.00;34.25;;;;;;;;4915841;28;51145;-49
2022/01/08 11:26:00;;;;;;;;;51.00;38.75;;;;;;;;4922167;28;51169;-47
2022/01/08 11:28:46;;;;;;;;;44.25;32.50;;;;;;;;4921689;28;51177;-46
2022/01/08 11:31:33;;;;;;;;;44.50;34.00;;;;;;;;4922010;28;52176;-47
2022/01/08 11:34:18;;;;;;;;;42.00;34.00;;;;;;;;4921941;28;51106;-49
2022/01/08 11:37:03;;;;;;;;;38.25;32.00;;;;;;;;4921780;28;51079;-44
2022/01/08 11:39:49;;;;;;;;;43.50;33.75;;;;;;;;4923399;28;51126;-46
2022/01/08 11:42:35;;;;;;;;;33.75;29.75;;;;;;;;4921460;28;51950;-50
2022/01/08 11:45:28;;;;;;;;;42.75;31.25;;;;;;;;4922079;28;52783;-45
2022/01/08 11:48:13;;;;;;;;;49.00;37.25;;;;;;;;4921385;28;51020;-48
2022/01/08 11:50:58;;;;;;;;;44.25;36.00;;;;;;;;4921709;28;51121;-45
2022/01/08 11:53:46;;;;;;;;;43.25;35.00;;;;;;;;4920344;28;51458;-48
2022/01/08 11:56:36;;;;;;;;;43.50;33.75;;;;;;;;4920776;28;51109;-47
2022/01/08 11:59:29;;;;;;;;;44.25;33.75;;;;;;;;4921212;28;51451;-53
2022/01/08 12:02:14;;;;;;;;;36.75;31.75;;;;;;;;4921288;28;51094;-49
2022/01/08 12:04:58;;;;;;;;;37.75;31.75;;;;;;;;4920983;28;51442;-50
2022/01/08 12:07:48;;;;;;;;;43.75;33.25;;;;;;;;4920375;28;51322;-44
2022/01/08 12:10:32;;;;;;;;;39.00;32.25;;;;;;;;4921224;28;52320;-44
2022/01/08 12:13:36;;;;;;;;;24.50;17.50;;;;;;;;4920737;28;51078;-51
2022/01/08 12:16:33;;;;;;;;;44.50;33.00;;;;;;;;4920763;28;51209;-45
2022/01/08 12:19:37;;;;;;;;;40.00;31.75;;;;;;;;4916120;28;51128;-46
2022/01/08 12:22:21;;;;;;;;;40.75;31.00;;;;;;;;4920931;28;51082;-52
2022/01/08 12:25:06;;;;;;;;;39.50;31.25;;;;;;;;4920844;28;51210;-50
2022/01/08 12:27:50;;;;;;;;;45.50;34.50;;;;;;;;4921175;28;51055;-47
2022/01/08 12:30:35;;;;;;;;;44.75;34.00;;;;;;;;4920428;28;51486;-50
2022/01/08 12:33:20;;;;;;;;;34.75;31.00;;;;;;;;4920498;28;51054;-52
2022/01/08 12:36:23;;;;;;;;;46.75;33.50;;;;;;;;4920826;28;51606;-43
2022/01/08 12:39:07;;;;;;;;;46.00;35.25;;;;;;;;4920643;28;51090;-52
2022/01/08 12:42:11;;;;;;;;;41.75;32.00;;;;;;;;4921057;28;51134;-47
2022/01/08 12:45:07;;;;;;;;;47.75;34.50;;;;;;;;4904466;28;51158;-48
2022/01/08 12:47:53;;;;;;;;;41.00;31.75;;;;;;;;4920644;28;51112;-44
2022/01/08 12:50:43;;;;;;;;;39.75;34.00;;;;;;;;4932090;28;51222;-44
2022/01/08 12:53:28;;;;;;;;;45.25;36.25;;;;;;;;4920506;28;51128;-47
2022/01/08 12:56:13;;;;;;;;;47.50;39.00;;;;;;;;4920521;28;51074;-48
2022/01/08 12:58:58;;;;;;;;;42.00;35.00;;;;;;;;4920450;28;51147;-46
2022/01/08 13:01:49;;;;;;;;;45.25;36.00;;;;;;;;4920439;28;51691;-49
2022/01/08 13:04:35;;;;;;;;;37.25;31.25;;;;;;;;4922082;28;51322;-48
2022/01/08 13:07:22;;;;;;;;;40.00;29.00;;;;;;;;4924399;28;51244;-46
2022/01/08 13:10:06;;;;;;;;;44.25;34.00;;;;;;;;4924144;28;51055;-51
2022/01/08 13:13:04;;;;;;;;;48.75;36.75;;;;;;;;4924213;28;51608;-48
2022/01/08 13:15:48;;;;;;;;;33.50;30.75;;;;;;;;4923870;28;51145;-46
2022/01/08 13:18:32;;;;;;;;;41.00;32.75;;;;;;;;4924368;28;51103;-47
2022/01/08 13:21:17;;;;;;;;;32.75;28.25;;;;;;;;4923689;28;51563;-53
2022/01/08 13:24:03;;;;;;;;;44.00;37.00;;;;;;;;4923157;28;51083;-47
2022/01/08 13:26:52;;;;;;;;;40.25;33.00;;;;;;;;4922180;28;51631;-48
2022/01/08 13:29:41;;;;;;;;;49.75;36.75;;;;;;;;4923059;28;51272;-46
2022/01/08 13:32:26;;;;;;;;;48.75;36.75;;;;;;;;4923216;28;51213;-45
2022/01/08 13:35:12;;;;;;;;;46.25;33.25;;;;;;;;4922576;28;51129;-50
2022/01/08 13:37:57;;;;;;;;;47.25;36.50;;;;;;;;4923345;28;51139;-47
2022/01/08 13:40:41;;;;;;;;;35.00;29.50;;;;;;;;4923493;28;51367;-44
2022/01/08 13:43:30;;;;;;;;;42.25;34.00;;;;;;;;4923107;28;51134;-44
2022/01/08 13:46:14;;;;;;;;;49.00;36.75;;;;;;;;4933273;28;51448;-44
2022/01/08 13:49:00;;;;;;;;;47.00;36.25;;;;;;;;4922738;28;51083;-48
2022/01/08 13:51:45;;;;;;;;;46.00;36.50;;;;;;;;4922893;28;51101;-46
2022/01/08 13:54:34;;;;;;;;;45.75;37.00;;;;;;;;4922021;28;51571;-48
2022/01/08 13:57:19;;;;;;;;;39.75;32.75;;;;;;;;4922650;28;51162;-47
2022/01/08 14:00:11;;;;;;;;;44.25;32.25;;;;;;;;4915535;28;51480;-54
2022/01/08 14:02:56;;;;;;;;;41.75;34.75;;;;;;;;4923411;28;51393;-50
2022/01/08 14:05:41;;;;;;;;;40.00;32.50;;;;;;;;4922513;28;51351;-51
2022/01/08 14:08:26;;;;;;;;;42.75;32.75;;;;;;;;4923655;28;51066;-51
2022/01/08 14:11:19;;;;;;;;;45.00;34.75;;;;;;;;4923596;28;51187;-55
2022/01/08 14:14:08;;;;;;;;;45.50;35.00;;;;;;;;4923535;28;51100;-52
2022/01/08 14:16:54;;;;;;;;;44.75;35.00;;;;;;;;4922175;28;51659;-51
2022/01/08 14:19:39;;;;;;;;;42.50;34.25;;;;;;;;4922883;28;51194;-53
2022/01/08 14:22:23;;;;;;;;;45.25;32.50;;;;;;;;4922948;28;51169;-49
2022/01/08 14:25:17;;;;;;;;;43.00;33.75;;;;;;;;4921014;28;51205;-54
2022/01/08 14:28:13;;;;;;;;;43.25;35.50;;;;;;;;4921363;28;51119;-58
2022/01/08 14:31:24;;;;;;;;;44.50;35.00;;;;;;;;4915067;28;51151;-50
2022/01/08 14:34:08;;;;;;;;;40.75;32.75;;;;;;;;4916834;28;51083;-52
2022/01/08 14:36:53;;;;;;;;;42.25;32.75;;;;;;;;4922364;28;51074;-54
2022/01/08 14:39:41;;;;;;;;;38.75;30.50;;;;;;;;4922300;28;51612;-53
2022/01/08 14:42:29;;;;;;;;;29.25;22.75;;;;;;;;4923036;28;51633;-52
2022/01/08 14:45:18;;;;;;;;;37.25;32.00;;;;;;;;4922544;28;51142;-51
2022/01/08 14:48:13;;;;;;;;;41.25;33.00;;;;;;;;4922576;28;52025;-48
2022/01/08 14:50:58;;;;;;;;;44.25;35.50;;;;;;;;4922429;28;51107;-49
2022/01/08 14:53:42;;;;;;;;;43.75;32.50;;;;;;;;4922483;28;51611;-54
2022/01/08 14:56:27;;;;;;;;;41.75;32.75;;;;;;;;4922192;28;51157;-52
2022/01/08 14:59:11;;;;;;;;;43.50;32.00;;;;;;;;4922343;28;51408;-54
2022/01/08 15:01:56;;;;;;;;;45.25;34.50;;;;;;;;4922030;28;51427;-52
2022/01/08 15:04:41;;;;;;;;;46.00;35.00;;;;;;;;4939514;28;51070;-54
2022/01/08 15:07:25;;;;;;;;;46.75;34.00;;;;;;;;4941461;28;51355;-54
2022/01/08 15:10:10;;;;;;;;;45.25;34.50;;;;;;;;4922579;28;51212;-51
2022/01/08 15:12:54;;;;;;;;;36.75;30.00;;;;;;;;4921906;28;51469;-51
2022/01/08 15:15:39;;;;;;;;;40.00;32.75;;;;;;;;4919398;28;51915;-48
2022/01/08 15:18:24;;;;;;;;;38.75;32.00;;;;;;;;4921037;28;51743;-50
2022/01/08 15:21:08;;;;;;;;;44.00;32.50;;;;;;;;4920112;28;51225;-50
2022/01/08 15:23:53;;;;;;;;;40.00;29.00;;;;;;;;4921877;28;51204;-51
2022/01/08 15:26:37;;;;;;;;;43.00;33.75;;;;;;;;4920418;28;51354;-49
2022/01/08 15:29:22;;;;;;;;;41.50;33.75;;;;;;;;4922050;28;51158;-53
2022/01/08 15:32:06;;;;;;;;;46.50;36.50;;;;;;;;4921230;28;51577;-49
2022/01/08 15:34:51;;;;;;;;;45.50;36.00;;;;;;;;4921265;28;51070;-46
2022/01/08 15:37:36;;;;;;;;;44.25;32.25;;;;;;;;4914524;28;51456;-50
2022/01/08 15:40:20;;;;;;;;;43.25;33.25;;;;;;;;4920127;28;51182;-49
2022/01/08 15:43:05;;;;;;;;;41.75;34.25;;;;;;;;4916533;28;51812;-47
2022/01/08 15:45:49;;;;;;;;;47.00;34.50;;;;;;;;4914405;28;51166;-47
2022/01/08 15:48:34;;;;;;;;;46.25;33.50;;;;;;;;4921196;28;51307;-48
2022/01/08 15:51:18;;;;;;;;;50.50;35.75;;;;;;;;4920964;28;51080;-48
2022/01/08 15:54:04;;;;;;;;;46.75;36.00;;;;;;;;4921944;28;51120;-51
2022/01/08 15:56:49;;;;;;;;;43.50;29.00;;;;;;;;4919799;28;51154;-46
2022/01/08 15:59:33;;;;;;;;;45.25;34.00;;;;;;;;4919785;28;51142;-52
2022/01/08 16:02:18;;;;;;;;;46.25;32.50;;;;;;;;4919233;28;51355;-47
2022/01/08 16:05:02;;;;;;;;;40.75;32.75;;;;;;;;4917283;28;51414;-46
2022/01/08 16:07:49;;;;;;;;;49.50;37.75;;;;;;;;4915278;28;51242;-49
2022/01/08 16:10:33;;;;;;;;;44.25;33.50;;;;;;;;4915055;28;51315;-47
2022/01/08 16:13:19;;;;;;;;;25.50;16.25;;;;;;;;4913485;28;51218;-49
2022/01/08 16:16:04;;;;;;;;;46.00;33.50;;;;;;;;4911092;28;51065;-48
2022/01/08 16:18:48;;;;;;;;;46.50;35.75;;;;;;;;4909172;28;51110;-49
2022/01/08 16:21:34;;;;;;;;;45.00;31.25;;;;;;;;4916428;28;51703;-52
2022/01/08 16:24:18;;;;;;;;;48.00;35.75;;;;;;;;4914855;28;51107;-52
2022/01/08 16:27:04;;;;;;;;;46.50;36.25;;;;;;;;4916128;28;51127;-46
2022/01/08 16:29:49;;;;;;;;;51.50;38.25;;;;;;;;4912448;28;51509;-51
2022/01/08 16:32:33;;;;;;;;;45.00;33.50;;;;;;;;4914426;28;51190;-51
2022/01/08 16:35:17;;;;;;;;;42.00;29.75;;;;;;;;4913728;28;51429;-50
2022/01/08 16:38:03;;;;;;;;;47.00;35.00;;;;;;;;4912864;28;51670;-53
2022/01/08 16:40:48;;;;;;;;;37.50;31.00;;;;;;;;4913049;28;51502;-52
2022/01/08 16:43:32;;;;;;;;;42.75;34.00;;;;;;;;4915262;28;51150;-48
2022/01/08 16:46:19;;;;;;;;;48.25;36.75;;;;;;;;4911869;28;51666;-51
2022/01/08 16:49:03;;;;;;;;;52.50;38.50;;;;;;;;4912337;28;51229;-48
2022/01/08 16:51:47;;;;;;;;;45.00;36.25;;;;;;;;4915615;28;51210;-48